sensor_id;sensor_type;location;lat;lon;timestamp;pressure;altitude;pressure_sealevel;temperature;humidity
64698;BME280;51124;53.394;-6.294;2023-08-06T00:00:48;101141.77;;;22.98;13.46
64698;BME280;51124;53.394;-6.294;2023-08-06T00:03:11;101142.21;;;21.26;13.32
64698;BME280;51124;53.394;-6.294;2023-08-06T00:05:49;101141.62;;;20.81;12.88
64698;BME280;51124;53.394;-6.294;2023-08-06T00:08:16;101140.49;;;20.54;12.52
64698;BME280;51124;53.394;-6.294;2023-08-06T00:10:43;101139.84;;;20.32;12.18
64698;BME280;51124;53.394;-6.294;2023-08-06T00:13:10;101135.16;;;20.96;12.01
64698;BME280;51124;53.394;-6.294;2023-08-06T00:15:37;101134.90;;;20.32;11.96
64698;BME280;51124;53.394;-6.294;2023-08-06T00:18:05;101138.77;;;20.08;11.69
64698;BME280;51124;53.394;-6.294;2023-08-06T00:20:32;101138.16;;;19.95;11.62
64698;BME280;51124;53.394;-6.294;2023-08-06T00:22:59;101138.09;;;21.05;11.30
64698;BME280;51124;53.394;-6.294;2023-08-06T00:25:26;101137.31;;;21.16;11.21
64698;BME280;51124;53.394;-6.294;2023-08-06T00:27:54;101139.17;;;21.45;11.30
64698;BME280;51124;53.394;-6.294;2023-08-06T00:30:21;101140.97;;;21.14;11.12
64698;BME280;51124;53.394;-6.294;2023-08-06T00:32:48;101142.02;;;21.25;11.14
64698;BME280;51124;53.394;-6.294;2023-08-06T00:35:15;101143.43;;;20.69;11.21
64698;BME280;51124;53.394;-6.294;2023-08-06T00:37:42;101146.32;;;21.26;10.93
64698;BME280;51124;53.394;-6.294;2023-08-06T00:40:10;101148.50;;;20.61;11.03
64698;BME280;51124;53.394;-6.294;2023-08-06T00:42:37;101150.29;;;20.92;10.98
64698;BME280;51124;53.394;-6.294;2023-08-06T00:45:05;101151.29;;;19.78;11.19
64698;BME280;51124;53.394;-6.294;2023-08-06T00:47:32;101154.02;;;20.51;11.06
64698;BME280;51124;53.394;-6.294;2023-08-06T00:49:59;101152.83;;;20.79;10.97
64698;BME280;51124;53.394;-6.294;2023-08-06T00:52:27;101156.06;;;21.05;10.94
64698;BME280;51124;53.394;-6.294;2023-08-06T00:54:55;101155.86;;;20.50;10.87
64698;BME280;51124;53.394;-6.294;2023-08-06T00:57:24;101153.99;;;20.93;10.94
64698;BME280;51124;53.394;-6.294;2023-08-06T00:59:52;101152.06;;;20.97;10.84
64698;BME280;51124;53.394;-6.294;2023-08-06T01:02:19;101150.99;;;21.42;10.80
64698;BME280;51124;53.394;-6.294;2023-08-06T01:04:46;101148.83;;;21.24;10.79
64698;BME280;51124;53.394;-6.294;2023-08-06T01:07:25;101145.02;;;20.72;10.90
64698;BME280;51124;53.394;-6.294;2023-08-06T01:09:55;101146.90;;;20.34;10.92
64698;BME280;51124;53.394;-6.294;2023-08-06T01:12:22;101146.87;;;21.20;10.76
64698;BME280;51124;53.394;-6.294;2023-08-06T01:14:48;101148.44;;;21.58;10.83
64698;BME280;51124;53.394;-6.294;2023-08-06T01:17:09;101150.12;;;20.52;10.87
64698;BME280;51124;53.394;-6.294;2023-08-06T01:19:37;101150.73;;;21.05;10.90
64698;BME280;51124;53.394;-6.294;2023-08-06T01:22:04;101149.66;;;21.14;10.90
64698;BME280;51124;53.394;-6.294;2023-08-06T01:24:31;101151.98;;;21.20;10.92
64698;BME280;51124;53.394;-6.294;2023-08-06T01:27:03;101153.00;;;20.82;10.90
64698;BME280;51124;53.394;-6.294;2023-08-06T01:29:34;101155.09;;;20.66;10.96
64698;BME280;51124;53.394;-6.294;2023-08-06T01:32:02;101157.50;;;21.35;11.03
64698;BME280;51124;53.394;-6.294;2023-08-06T01:34:33;101161.18;;;20.29;11.03
64698;BME280;51124;53.394;-6.294;2023-08-06T01:37:01;101162.96;;;20.30;11.06
64698;BME280;51124;53.394;-6.294;2023-08-06T01:39:29;101161.32;;;20.35;11.07
64698;BME280;51124;53.394;-6.294;2023-08-06T01:41:56;101162.90;;;20.90;10.96
64698;BME280;51124;53.394;-6.294;2023-08-06T01:44:23;101164.36;;;21.03;11.05
64698;BME280;51124;53.394;-6.294;2023-08-06T01:46:51;101168.73;;;21.49;10.93
64698;BME280;51124;53.394;-6.294;2023-08-06T01:49:18;101175.87;;;20.58;10.88
64698;BME280;51124;53.394;-6.294;2023-08-06T01:51:45;101177.21;;;20.87;10.91
64698;BME280;51124;53.394;-6.294;2023-08-06T01:54:12;101179.29;;;21.02;10.85
64698;BME280;51124;53.394;-6.294;2023-08-06T01:56:40;101179.95;;;20.73;10.84
64698;BME280;51124;53.394;-6.294;2023-08-06T01:59:07;101180.10;;;20.88;10.92
64698;BME280;51124;53.394;-6.294;2023-08-06T02:01:35;101181.16;;;23.19;11.10
64698;BME280;51124;53.394;-6.294;2023-08-06T02:04:02;101179.42;;;22.82;11.53
64698;BME280;51124;53.394;-6.294;2023-08-06T02:06:29;101180.40;;;21.05;11.56
64698;BME280;51124;53.394;-6.294;2023-08-06T02:08:56;101180.85;;;23.21;11.86
64698;BME280;51124;53.394;-6.294;2023-08-06T02:11:24;101187.22;;;23.96;12.34
64698;BME280;51124;53.394;-6.294;2023-08-06T02:13:51;101190.25;;;22.59;12.80
64698;BME280;51124;53.394;-6.294;2023-08-06T02:16:18;101191.55;;;22.90;12.92
64698;BME280;51124;53.394;-6.294;2023-08-06T02:18:46;101196.78;;;23.20;13.09
64698;BME280;51124;53.394;-6.294;2023-08-06T02:21:13;101194.30;;;22.64;13.18
64698;BME280;51124;53.394;-6.294;2023-08-06T02:23:41;101194.38;;;22.37;13.33
64698;BME280;51124;53.394;-6.294;2023-08-06T02:26:08;101194.34;;;22.28;13.20
64698;BME280;51124;53.394;-6.294;2023-08-06T02:28:35;101194.79;;;22.77;13.27
64698;BME280;51124;53.394;-6.294;2023-08-06T02:31:03;101188.97;;;22.65;13.32
64698;BME280;51124;53.394;-6.294;2023-08-06T02:33:30;101191.00;;;22.88;13.30
64698;BME280;51124;53.394;-6.294;2023-08-06T02:36:02;101189.36;;;22.00;13.40
64698;BME280;51124;53.394;-6.294;2023-08-06T02:38:29;101190.43;;;22.44;13.36
64698;BME280;51124;53.394;-6.294;2023-08-06T02:40:57;101188.22;;;22.43;13.43
64698;BME280;51124;53.394;-6.294;2023-08-06T02:43:25;101187.32;;;22.93;13.40
64698;BME280;51124;53.394;-6.294;2023-08-06T02:45:56;101187.25;;;22.27;13.46
64698;BME280;51124;53.394;-6.294;2023-08-06T02:48:23;101193.66;;;22.36;13.55
64698;BME280;51124;53.394;-6.294;2023-08-06T02:50:51;101188.58;;;22.26;13.43
64698;BME280;51124;53.394;-6.294;2023-08-06T02:53:18;101186.38;;;22.03;13.44
64698;BME280;51124;53.394;-6.294;2023-08-06T02:55:47;101182.03;;;22.64;13.39
64698;BME280;51124;53.394;-6.294;2023-08-06T02:58:15;101177.51;;;22.16;13.46
64698;BME280;51124;53.394;-6.294;2023-08-06T03:00:43;101180.31;;;20.11;13.24
64698;BME280;51124;53.394;-6.294;2023-08-06T03:03:10;101174.76;;;20.21;12.73
64698;BME280;51124;53.394;-6.294;2023-08-06T03:05:37;101175.89;;;19.95;12.28
64698;BME280;51124;53.394;-6.294;2023-08-06T03:08:05;101170.64;;;20.57;11.88
64698;BME280;51124;53.394;-6.294;2023-08-06T03:10:32;101168.71;;;21.40;11.82
64698;BME280;51124;53.394;-6.294;2023-08-06T03:13:00;101167.15;;;18.52;11.62
64698;BME280;51124;53.394;-6.294;2023-08-06T03:15:27;101171.40;;;20.05;11.31
64698;BME280;51124;53.394;-6.294;2023-08-06T03:17:57;101171.65;;;20.78;11.27
64698;BME280;51124;53.394;-6.294;2023-08-06T03:20:25;101170.63;;;20.49;11.20
64698;BME280;51124;53.394;-6.294;2023-08-06T03:22:52;101169.09;;;20.15;11.21
64698;BME280;51124;53.394;-6.294;2023-08-06T03:25:19;101165.77;;;20.48;11.25
64698;BME280;51124;53.394;-6.294;2023-08-06T03:27:46;101163.60;;;20.39;11.12
64698;BME280;51124;53.394;-6.294;2023-08-06T03:30:13;101166.17;;;20.49;11.05
64698;BME280;51124;53.394;-6.294;2023-08-06T03:32:41;101166.16;;;20.28;11.08
64698;BME280;51124;53.394;-6.294;2023-08-06T03:35:08;101170.81;;;20.42;10.80
64698;BME280;51124;53.394;-6.294;2023-08-06T03:37:36;101172.52;;;20.87;10.87
64698;BME280;51124;53.394;-6.294;2023-08-06T03:40:03;101173.51;;;20.20;10.94
64698;BME280;51124;53.394;-6.294;2023-08-06T03:42:31;101173.38;;;20.50;10.77
64698;BME280;51124;53.394;-6.294;2023-08-06T03:44:58;101172.61;;;20.09;10.81
64698;BME280;51124;53.394;-6.294;2023-08-06T03:47:25;101171.39;;;20.44;10.73
64698;BME280;51124;53.394;-6.294;2023-08-06T03:49:52;101171.62;;;20.35;10.83
64698;BME280;51124;53.394;-6.294;2023-08-06T03:52:19;101169.35;;;20.45;10.78
64698;BME280;51124;53.394;-6.294;2023-08-06T03:54:46;101168.66;;;19.96;10.81
64698;BME280;51124;53.394;-6.294;2023-08-06T03:57:14;101168.51;;;20.11;10.82
64698;BME280;51124;53.394;-6.294;2023-08-06T03:59:41;101169.56;;;19.88;10.72
64698;BME280;51124;53.394;-6.294;2023-08-06T04:02:08;101170.12;;;19.84;10.89
64698;BME280;51124;53.394;-6.294;2023-08-06T04:04:36;101169.68;;;20.27;10.66
64698;BME280;51124;53.394;-6.294;2023-08-06T04:07:03;101167.75;;;19.34;10.91
64698;BME280;51124;53.394;-6.294;2023-08-06T04:09:31;101166.33;;;20.01;10.72
64698;BME280;51124;53.394;-6.294;2023-08-06T04:11:58;101164.40;;;19.60;10.72
64698;BME280;51124;53.394;-6.294;2023-08-06T04:14:26;101165.26;;;21.13;10.72
64698;BME280;51124;53.394;-6.294;2023-08-06T04:16:53;101167.90;;;20.05;10.77
64698;BME280;51124;53.394;-6.294;2023-08-06T04:19:20;101169.25;;;20.55;10.72
64698;BME280;51124;53.394;-6.294;2023-08-06T04:21:47;101170.31;;;20.25;10.76
64698;BME280;51124;53.394;-6.294;2023-08-06T04:24:15;101169.00;;;19.88;10.74
64698;BME280;51124;53.394;-6.294;2023-08-06T04:26:42;101169.39;;;20.31;10.72
64698;BME280;51124;53.394;-6.294;2023-08-06T04:29:09;101173.89;;;20.65;10.68
64698;BME280;51124;53.394;-6.294;2023-08-06T04:31:36;101178.22;;;20.16;10.78
64698;BME280;51124;53.394;-6.294;2023-08-06T04:34:03;101184.15;;;20.19;10.79
64698;BME280;51124;53.394;-6.294;2023-08-06T04:36:31;101182.88;;;20.79;10.71
64698;BME280;51124;53.394;-6.294;2023-08-06T04:38:58;101185.38;;;20.05;10.79
64698;BME280;51124;53.394;-6.294;2023-08-06T04:41:25;101182.17;;;20.92;10.70
64698;BME280;51124;53.394;-6.294;2023-08-06T04:43:52;101183.42;;;19.71;10.83
64698;BME280;51124;53.394;-6.294;2023-08-06T04:46:19;101183.61;;;19.98;10.82
64698;BME280;51124;53.394;-6.294;2023-08-06T04:48:47;101184.40;;;20.30;10.64
64698;BME280;51124;53.394;-6.294;2023-08-06T04:51:14;101182.00;;;20.32;10.67
64698;BME280;51124;53.394;-6.294;2023-08-06T04:53:41;101185.06;;;20.17;10.67
64698;BME280;51124;53.394;-6.294;2023-08-06T04:56:08;101186.40;;;20.28;10.55
64698;BME280;51124;53.394;-6.294;2023-08-06T04:58:35;101192.18;;;21.60;10.93
64698;BME280;51124;53.394;-6.294;2023-08-06T05:01:02;101197.30;;;22.35;11.30
64698;BME280;51124;53.394;-6.294;2023-08-06T05:03:30;101201.56;;;20.31;11.53
64698;BME280;51124;53.394;-6.294;2023-08-06T05:05:57;101200.88;;;23.11;11.52
64698;BME280;51124;53.394;-6.294;2023-08-06T05:08:25;101208.22;;;23.50;12.06
64698;BME280;51124;53.394;-6.294;2023-08-06T05:10:52;101214.30;;;22.58;12.51
64698;BME280;51124;53.394;-6.294;2023-08-06T05:13:20;101217.82;;;22.73;12.72
64698;BME280;51124;53.394;-6.294;2023-08-06T05:15:47;101217.14;;;22.80;12.78
64698;BME280;51124;53.394;-6.294;2023-08-06T05:18:15;101216.67;;;22.58;12.98
64698;BME280;51124;53.394;-6.294;2023-08-06T05:20:43;101220.16;;;22.15;13.22
64698;BME280;51124;53.394;-6.294;2023-08-06T05:23:10;101220.84;;;21.96;13.09
64698;BME280;51124;53.394;-6.294;2023-08-06T05:25:38;101221.83;;;21.93;13.10
64698;BME280;51124;53.394;-6.294;2023-08-06T05:28:06;101220.27;;;22.59;13.12
64698;BME280;51124;53.394;-6.294;2023-08-06T05:30:33;101220.71;;;23.06;13.13
64698;BME280;51124;53.394;-6.294;2023-08-06T05:33:00;101223.65;;;21.98;13.19
64698;BME280;51124;53.394;-6.294;2023-08-06T05:35:28;101225.14;;;22.19;13.26
64698;BME280;51124;53.394;-6.294;2023-08-06T05:37:55;101227.91;;;22.16;13.27
64698;BME280;51124;53.394;-6.294;2023-08-06T05:40:23;101230.46;;;22.55;13.16
64698;BME280;51124;53.394;-6.294;2023-08-06T05:42:50;101231.35;;;21.67;13.19
64698;BME280;51124;53.394;-6.294;2023-08-06T05:45:17;101232.22;;;21.68;13.25
64698;BME280;51124;53.394;-6.294;2023-08-06T05:47:45;101235.81;;;22.32;13.18
64698;BME280;51124;53.394;-6.294;2023-08-06T05:50:13;101238.78;;;22.84;13.20
64698;BME280;51124;53.394;-6.294;2023-08-06T05:52:40;101241.99;;;21.32;13.28
64698;BME280;51124;53.394;-6.294;2023-08-06T05:55:08;101241.76;;;21.55;13.18
64698;BME280;51124;53.394;-6.294;2023-08-06T05:57:35;101241.08;;;20.45;13.10
64698;BME280;51124;53.394;-6.294;2023-08-06T06:00:03;101239.64;;;20.13;12.60
64698;BME280;51124;53.394;-6.294;2023-08-06T06:02:28;101238.96;;;20.54;12.07
64698;BME280;51124;53.394;-6.294;2023-08-06T06:04:53;101239.31;;;20.55;11.97
64698;BME280;51124;53.394;-6.294;2023-08-06T06:07:16;101241.75;;;20.69;11.83
64698;BME280;51124;53.394;-6.294;2023-08-06T06:09:49;101244.14;;;19.76;11.68
64698;BME280;51124;53.394;-6.294;2023-08-06T06:12:25;101247.17;;;20.27;11.40
64698;BME280;51124;53.394;-6.294;2023-08-06T06:14:48;101246.98;;;20.30;11.13
64698;BME280;51124;53.394;-6.294;2023-08-06T06:17:22;101252.10;;;19.51;11.18
64698;BME280;51124;53.394;-6.294;2023-08-06T06:19:55;101253.84;;;19.94;11.16
64698;BME280;51124;53.394;-6.294;2023-08-06T06:22:28;101255.21;;;20.22;11.00
64698;BME280;51124;53.394;-6.294;2023-08-06T06:25:02;101254.77;;;19.73;11.01
64698;BME280;51124;53.394;-6.294;2023-08-06T06:27:35;101255.12;;;20.73;10.81
64698;BME280;51124;53.394;-6.294;2023-08-06T06:30:09;101254.24;;;20.04;10.84
64698;BME280;51124;53.394;-6.294;2023-08-06T06:32:42;101255.12;;;20.35;10.70
64698;BME280;51124;53.394;-6.294;2023-08-06T06:35:16;101259.85;;;20.20;10.77
64698;BME280;51124;53.394;-6.294;2023-08-06T06:37:49;101258.61;;;19.64;10.65
64698;BME280;51124;53.394;-6.294;2023-08-06T06:40:23;101263.82;;;20.23;10.72
64698;BME280;51124;53.394;-6.294;2023-08-06T06:42:56;101262.79;;;19.67;10.88
64698;BME280;51124;53.394;-6.294;2023-08-06T06:45:29;101264.25;;;20.29;10.72
64698;BME280;51124;53.394;-6.294;2023-08-06T06:48:03;101263.38;;;20.17;10.63
64698;BME280;51124;53.394;-6.294;2023-08-06T06:50:39;101264.15;;;20.11;10.59
64698;BME280;51124;53.394;-6.294;2023-08-06T06:53:04;101265.82;;;19.38;10.68
64698;BME280;51124;53.394;-6.294;2023-08-06T06:55:29;101263.03;;;20.27;10.60
64698;BME280;51124;53.394;-6.294;2023-08-06T06:57:54;101263.49;;;19.85;10.63
64698;BME280;51124;53.394;-6.294;2023-08-06T07:00:20;101260.12;;;20.69;10.41
64698;BME280;51124;53.394;-6.294;2023-08-06T07:02:45;101262.01;;;19.95;10.60
64698;BME280;51124;53.394;-6.294;2023-08-06T07:05:08;101264.72;;;20.02;10.59
64698;BME280;51124;53.394;-6.294;2023-08-06T07:07:41;101266.39;;;19.72;10.56
64698;BME280;51124;53.394;-6.294;2023-08-06T07:10:15;101263.82;;;19.72;10.57
64698;BME280;51124;53.394;-6.294;2023-08-06T07:12:51;101264.89;;;19.73;10.72
64698;BME280;51124;53.394;-6.294;2023-08-06T07:15:16;101259.27;;;19.76;10.64
64698;BME280;51124;53.394;-6.294;2023-08-06T07:17:41;101260.89;;;19.75;10.58
64698;BME280;51124;53.394;-6.294;2023-08-06T07:20:06;101258.82;;;20.30;10.47
64698;BME280;51124;53.394;-6.294;2023-08-06T07:22:39;101260.00;;;19.73;10.50
64698;BME280;51124;53.394;-6.294;2023-08-06T07:25:13;101258.76;;;21.01;10.44
64698;BME280;51124;53.394;-6.294;2023-08-06T07:27:46;101260.12;;;20.21;10.61
64698;BME280;51124;53.394;-6.294;2023-08-06T07:30:20;101262.18;;;19.78;10.75
64698;BME280;51124;53.394;-6.294;2023-08-06T07:32:53;101257.94;;;19.87;10.58
64698;BME280;51124;53.394;-6.294;2023-08-06T07:35:28;101260.99;;;20.59;10.49
64698;BME280;51124;53.394;-6.294;2023-08-06T07:37:53;101261.86;;;20.57;10.43
64698;BME280;51124;53.394;-6.294;2023-08-06T07:40:27;101262.96;;;19.93;10.71
64698;BME280;51124;53.394;-6.294;2023-08-06T07:43:00;101261.43;;;20.35;10.56
64698;BME280;51124;53.394;-6.294;2023-08-06T07:45:34;101264.45;;;18.84;10.75
64698;BME280;51124;53.394;-6.294;2023-08-06T07:48:07;101265.19;;;19.70;10.76
64698;BME280;51124;53.394;-6.294;2023-08-06T07:50:42;101265.28;;;18.50;11.35
64698;BME280;51124;53.394;-6.294;2023-08-06T07:53:06;101267.46;;;18.55;11.76
64698;BME280;51124;53.394;-6.294;2023-08-06T07:55:39;101267.12;;;21.39;11.81
64698;BME280;51124;53.394;-6.294;2023-08-06T07:58:12;101266.20;;;21.65;12.04
64698;BME280;51124;53.394;-6.294;2023-08-06T08:00:46;101261.59;;;19.71;12.45
64698;BME280;51124;53.394;-6.294;2023-08-06T08:03:20;101261.09;;;20.58;12.30
64698;BME280;51124;53.394;-6.294;2023-08-06T08:05:55;101262.65;;;23.09;12.62
64698;BME280;51124;53.394;-6.294;2023-08-06T08:08:18;101268.69;;;22.69;13.12
64698;BME280;51124;53.394;-6.294;2023-08-06T08:10:53;101272.59;;;21.89;13.47
64698;BME280;51124;53.394;-6.294;2023-08-06T08:13:29;101276.22;;;22.10;13.56
64698;BME280;51124;53.394;-6.294;2023-08-06T08:15:58;101277.27;;;21.54;13.72
64698;BME280;51124;53.394;-6.294;2023-08-06T08:18:24;101279.77;;;21.07;13.78
64698;BME280;51124;53.394;-6.294;2023-08-06T08:20:49;101276.94;;;21.14;14.11
64698;BME280;51124;53.394;-6.294;2023-08-06T08:23:13;101271.18;;;20.92;13.85
64698;BME280;51124;53.394;-6.294;2023-08-06T08:25:46;101270.13;;;21.08;13.88
64698;BME280;51124;53.394;-6.294;2023-08-06T08:28:20;101271.17;;;22.11;13.74
64698;BME280;51124;53.394;-6.294;2023-08-06T08:30:53;101270.08;;;21.29;14.04
64698;BME280;51124;53.394;-6.294;2023-08-06T08:33:27;101271.25;;;21.26;13.94
64698;BME280;51124;53.394;-6.294;2023-08-06T08:36:01;101267.50;;;21.59;13.85
64698;BME280;51124;53.394;-6.294;2023-08-06T08:38:34;101269.32;;;21.45;13.90
64698;BME280;51124;53.394;-6.294;2023-08-06T08:41:09;101267.20;;;22.40;13.63
64698;BME280;51124;53.394;-6.294;2023-08-06T08:43:43;101270.14;;;21.98;13.81
64698;BME280;51124;53.394;-6.294;2023-08-06T08:46:17;101271.52;;;21.99;13.70
64698;BME280;51124;53.394;-6.294;2023-08-06T08:48:51;101269.10;;;22.79;13.18
64698;BME280;51124;53.394;-6.294;2023-08-06T08:51:28;101269.76;;;22.29;13.27
64698;BME280;51124;53.394;-6.294;2023-08-06T08:53:53;101269.91;;;22.48;13.24
64698;BME280;51124;53.394;-6.294;2023-08-06T08:56:26;101270.57;;;20.64;13.10
64698;BME280;51124;53.394;-6.294;2023-08-06T08:59:00;101269.54;;;20.10;12.65
64698;BME280;51124;53.394;-6.294;2023-08-06T09:01:34;101263.26;;;20.29;12.11
64698;BME280;51124;53.394;-6.294;2023-08-06T09:04:09;101265.91;;;20.98;11.79
64698;BME280;51124;53.394;-6.294;2023-08-06T09:06:33;101269.17;;;21.44;11.68
64698;BME280;51124;53.394;-6.294;2023-08-06T09:09:06;101264.32;;;20.90;11.47
64698;BME280;51124;53.394;-6.294;2023-08-06T09:11:35;101263.37;;;20.49;11.39
64698;BME280;51124;53.394;-6.294;2023-08-06T09:14:00;101262.06;;;20.60;11.33
64698;BME280;51124;53.394;-6.294;2023-08-06T09:16:35;101265.96;;;20.67;11.09
64698;BME280;51124;53.394;-6.294;2023-08-06T09:19:07;101263.07;;;20.68;10.90
64698;BME280;51124;53.394;-6.294;2023-08-06T09:21:32;101269.70;;;20.68;11.00
64698;BME280;51124;53.394;-6.294;2023-08-06T09:23:59;101264.05;;;21.24;10.81
64698;BME280;51124;53.394;-6.294;2023-08-06T09:26:23;101265.66;;;21.40;10.85
64698;BME280;51124;53.394;-6.294;2023-08-06T09:28:59;101260.57;;;20.87;10.84
64698;BME280;51124;53.394;-6.294;2023-08-06T09:31:22;101265.18;;;20.68;10.61
64698;BME280;51124;53.394;-6.294;2023-08-06T09:33:59;101271.31;;;21.06;10.65
64698;BME280;51124;53.394;-6.294;2023-08-06T09:36:22;101274.15;;;20.56;10.61
64698;BME280;51124;53.394;-6.294;2023-08-06T09:38:56;101273.63;;;21.36;10.53
64698;BME280;51124;53.394;-6.294;2023-08-06T09:41:29;101271.16;;;20.93;10.62
64698;BME280;51124;53.394;-6.294;2023-08-06T09:44:03;101267.67;;;20.84;10.53
64698;BME280;51124;53.394;-6.294;2023-08-06T09:46:37;101273.74;;;20.52;10.59
64698;BME280;51124;53.394;-6.294;2023-08-06T09:49:10;101270.72;;;20.50;10.48
64698;BME280;51124;53.394;-6.294;2023-08-06T09:51:46;101270.74;;;21.03;10.53
64698;BME280;51124;53.394;-6.294;2023-08-06T09:54:13;101269.53;;;20.82;10.53
64698;BME280;51124;53.394;-6.294;2023-08-06T09:56:38;101269.50;;;20.89;10.47
64698;BME280;51124;53.394;-6.294;2023-08-06T09:59:12;101271.06;;;20.68;10.58
64698;BME280;51124;53.394;-6.294;2023-08-06T10:01:46;101273.67;;;21.05;10.46
64698;BME280;51124;53.394;-6.294;2023-08-06T10:04:20;101275.03;;;20.99;10.51
64698;BME280;51124;53.394;-6.294;2023-08-06T10:06:53;101272.63;;;20.98;10.41
64698;BME280;51124;53.394;-6.294;2023-08-06T10:09:27;101271.82;;;20.40;10.74
64698;BME280;51124;53.394;-6.294;2023-08-06T10:12:00;101277.43;;;20.22;10.76
64698;BME280;51124;53.394;-6.294;2023-08-06T10:14:36;101275.38;;;21.73;10.58
64698;BME280;51124;53.394;-6.294;2023-08-06T10:17:02;101280.49;;;21.57;10.69
64698;BME280;51124;53.394;-6.294;2023-08-06T10:19:36;101282.03;;;21.59;10.69
64698;BME280;51124;53.394;-6.294;2023-08-06T10:22:11;101278.26;;;21.03;10.82
64698;BME280;51124;53.394;-6.294;2023-08-06T10:24:46;101275.68;;;21.66;10.86
64698;BME280;51124;53.394;-6.294;2023-08-06T10:27:21;101274.71;;;21.69;11.04
64698;BME280;51124;53.394;-6.294;2023-08-06T10:29:45;101274.35;;;21.21;10.91
64698;BME280;51124;53.394;-6.294;2023-08-06T10:32:18;101279.50;;;21.66;10.85
64698;BME280;51124;53.394;-6.294;2023-08-06T10:34:53;101274.34;;;20.91;10.95
64698;BME280;51124;53.394;-6.294;2023-08-06T10:37:18;101273.78;;;22.18;11.05
64698;BME280;51124;53.394;-6.294;2023-08-06T10:39:52;101269.45;;;20.70;11.12
64698;BME280;51124;53.394;-6.294;2023-08-06T10:42:27;101265.64;;;21.27;11.14
64698;BME280;51124;53.394;-6.294;2023-08-06T10:45:22;101263.56;;;20.80;11.09
64698;BME280;51124;53.394;-6.294;2023-08-06T10:47:26;101267.58;;;21.11;11.03
64698;BME280;51124;53.394;-6.294;2023-08-06T10:50:00;101267.47;;;21.46;10.92
64698;BME280;51124;53.394;-6.294;2023-08-06T10:52:35;101268.46;;;21.60;10.99
64698;BME280;51124;53.394;-6.294;2023-08-06T10:55:00;101264.56;;;23.75;11.16
64698;BME280;51124;53.394;-6.294;2023-08-06T10:57:26;101269.48;;;23.20;11.85
64698;BME280;51124;53.394;-6.294;2023-08-06T10:59:49;101271.99;;;22.36;11.73
64698;BME280;51124;53.394;-6.294;2023-08-06T11:02:23;101275.47;;;23.61;11.69
64698;BME280;51124;53.394;-6.294;2023-08-06T11:04:56;101273.30;;;24.29;12.33
64698;BME280;51124;53.394;-6.294;2023-08-06T11:07:30;101281.69;;;24.72;12.74
64698;BME280;51124;53.394;-6.294;2023-08-06T11:10:05;101293.21;;;23.42;13.13
64698;BME280;51124;53.394;-6.294;2023-08-06T11:12:29;101300.78;;;24.33;13.22
64698;BME280;51124;53.394;-6.294;2023-08-06T11:15:04;101306.97;;;23.43;13.39
64698;BME280;51124;53.394;-6.294;2023-08-06T11:17:41;101307.30;;;22.88;13.57
64698;BME280;51124;53.394;-6.294;2023-08-06T11:20:07;101306.44;;;23.31;13.47
64698;BME280;51124;53.394;-6.294;2023-08-06T11:22:32;101306.40;;;24.10;13.47
64698;BME280;51124;53.394;-6.294;2023-08-06T11:24:56;101297.87;;;23.36;13.51
64698;BME280;51124;53.394;-6.294;2023-08-06T11:27:30;101302.42;;;21.85;14.01
64698;BME280;51124;53.394;-6.294;2023-08-06T11:30:04;101295.82;;;23.04;13.64
64698;BME280;51124;53.394;-6.294;2023-08-06T11:32:45;101296.94;;;23.38;13.62
64698;BME280;51124;53.394;-6.294;2023-08-06T11:35:10;101292.31;;;23.58;13.59
64698;BME280;51124;53.394;-6.294;2023-08-06T11:37:34;101289.08;;;23.69;13.42
64698;BME280;51124;53.394;-6.294;2023-08-06T11:40:09;101286.72;;;22.08;14.05
64698;BME280;51124;53.394;-6.294;2023-08-06T11:42:42;101279.63;;;23.13;12.93
64698;BME280;51124;53.394;-6.294;2023-08-06T11:45:16;101278.36;;;23.77;12.94
64698;BME280;51124;53.394;-6.294;2023-08-06T11:47:50;101286.10;;;24.06;13.09
64698;BME280;51124;53.394;-6.294;2023-08-06T11:50:24;101283.78;;;24.37;13.01
64698;BME280;51124;53.394;-6.294;2023-08-06T11:53:00;101283.27;;;22.56;13.60
64698;BME280;51124;53.394;-6.294;2023-08-06T11:55:24;101274.58;;;22.69;12.67
64698;BME280;51124;53.394;-6.294;2023-08-06T11:57:59;101269.81;;;21.11;12.41
64698;BME280;51124;53.394;-6.294;2023-08-06T12:00:26;101274.08;;;20.93;12.13
64698;BME280;51124;53.394;-6.294;2023-08-06T12:02:59;101269.79;;;22.06;11.52
64698;BME280;51124;53.394;-6.294;2023-08-06T12:05:33;101265.03;;;22.30;11.29
64698;BME280;51124;53.394;-6.294;2023-08-06T12:08:09;101260.59;;;22.09;10.98
64698;BME280;51124;53.394;-6.294;2023-08-06T12:10:32;101256.47;;;22.55;10.81
64698;BME280;51124;53.394;-6.294;2023-08-06T12:13:05;101256.59;;;21.69;10.90
64698;BME280;51124;53.394;-6.294;2023-08-06T12:15:39;101251.47;;;22.82;10.45
64698;BME280;51124;53.394;-6.294;2023-08-06T12:18:12;101256.27;;;22.32;10.52
64698;BME280;51124;53.394;-6.294;2023-08-06T12:20:45;101263.48;;;21.58;10.90
64698;BME280;51124;53.394;-6.294;2023-08-06T12:23:19;101268.55;;;21.83;10.85
64698;BME280;51124;53.394;-6.294;2023-08-06T12:25:52;101271.25;;;21.51;10.86
64698;BME280;51124;53.394;-6.294;2023-08-06T12:28:26;101273.66;;;21.73;10.68
64698;BME280;51124;53.394;-6.294;2023-08-06T12:30:59;101282.85;;;22.06;10.49
64698;BME280;51124;53.394;-6.294;2023-08-06T12:33:32;101280.45;;;21.40;10.62
64698;BME280;51124;53.394;-6.294;2023-08-06T12:36:05;101278.44;;;21.71;10.50
64698;BME280;51124;53.394;-6.294;2023-08-06T12:38:39;101275.98;;;21.67;10.48
64698;BME280;51124;53.394;-6.294;2023-08-06T12:41:12;101274.76;;;21.49;10.61
64698;BME280;51124;53.394;-6.294;2023-08-06T12:43:45;101275.22;;;21.00;10.65
64698;BME280;51124;53.394;-6.294;2023-08-06T12:46:19;101273.80;;;21.37;10.48
64698;BME280;51124;53.394;-6.294;2023-08-06T12:48:52;101272.24;;;21.73;10.43
64698;BME280;51124;53.394;-6.294;2023-08-06T12:51:26;101271.96;;;21.76;10.43